Terminal Aerodrome Forecast
Issued by NWS

Home | Current Version | Previous Version | Text Only | Print | Product List | Glossary On
Versions: 1 2 3 4 5 6 7 8 9 10 11 12 13 14 15 16 17 18 19 20 21 22
149
FTUS41 KBGM 110350 AAB
TAFRME
TAF AMD
KRME 110350Z 1104/1124 10003KT P6SM -SN OVC060
      TEMPO 1104/1107 4SM -SN BKN025
     FM111000 18004KT P6SM BKN030 OVC050
     FM111400 16004KT P6SM BKN040
     FM112000 14007KT 5SM -SN OVC025
      TEMPO 1121/1124 1 1/2SM -SN OVC015=

USA.gov is the U.S. government's official web portal to all federal, state and local government web resources and services.